sensor_id;sensor_type;location;lat;lon;timestamp;P1;durP1;ratioP1;P2;durP2;ratioP2
41984;SDS011;28319;48.116;10.818;2024-01-07T00:04:24;5.20;;;4.27;;
41984;SDS011;28319;48.116;10.818;2024-01-07T00:09:25;4.40;;;3.87;;
41984;SDS011;28319;48.116;10.818;2024-01-07T00:14:27;6.20;;;5.10;;
41984;SDS011;28319;48.116;10.818;2024-01-07T00:19:31;4.87;;;4.13;;
41984;SDS011;28319;48.116;10.818;2024-01-07T00:24:35;6.00;;;4.80;;
41984;SDS011;28319;48.116;10.818;2024-01-07T00:29:37;7.13;;;5.00;;
41984;SDS011;28319;48.116;10.818;2024-01-07T00:34:40;8.23;;;6.37;;
41984;SDS011;28319;48.116;10.818;2024-01-07T00:39:42;8.83;;;5.93;;
41984;SDS011;28319;48.116;10.818;2024-01-07T00:44:45;8.83;;;6.27;;
41984;SDS011;28319;48.116;10.818;2024-01-07T00:49:49;7.53;;;5.87;;
41984;SDS011;28319;48.116;10.818;2024-01-07T00:54:51;8.50;;;5.90;;
41984;SDS011;28319;48.116;10.818;2024-01-07T00:59:53;4.83;;;4.00;;
41984;SDS011;28319;48.116;10.818;2024-01-07T01:04:56;7.00;;;5.53;;
41984;SDS011;28319;48.116;10.818;2024-01-07T01:09:58;4.67;;;4.17;;
41984;SDS011;28319;48.116;10.818;2024-01-07T01:15:00;5.20;;;4.10;;
41984;SDS011;28319;48.116;10.818;2024-01-07T01:20:04;7.70;;;5.33;;
41984;SDS011;28319;48.116;10.818;2024-01-07T01:25:06;5.60;;;4.93;;
41984;SDS011;28319;48.116;10.818;2024-01-07T01:30:10;7.13;;;5.13;;
41984;SDS011;28319;48.116;10.818;2024-01-07T01:35:14;5.10;;;4.50;;
41984;SDS011;28319;48.116;10.818;2024-01-07T01:40:16;5.30;;;4.47;;
41984;SDS011;28319;48.116;10.818;2024-01-07T01:45:18;5.27;;;4.77;;
41984;SDS011;28319;48.116;10.818;2024-01-07T01:50:22;4.50;;;4.03;;
41984;SDS011;28319;48.116;10.818;2024-01-07T01:55:24;5.07;;;4.10;;
41984;SDS011;28319;48.116;10.818;2024-01-07T02:00:26;5.60;;;4.37;;
41984;SDS011;28319;48.116;10.818;2024-01-07T02:05:29;5.63;;;4.97;;
41984;SDS011;28319;48.116;10.818;2024-01-07T02:10:31;4.57;;;3.93;;
41984;SDS011;28319;48.116;10.818;2024-01-07T02:15:34;6.50;;;4.70;;
41984;SDS011;28319;48.116;10.818;2024-01-07T02:20:37;7.57;;;5.37;;
41984;SDS011;28319;48.116;10.818;2024-01-07T02:25:41;5.10;;;4.10;;
41984;SDS011;28319;48.116;10.818;2024-01-07T02:30:43;6.50;;;5.30;;
41984;SDS011;28319;48.116;10.818;2024-01-07T02:35:45;5.60;;;4.60;;
41984;SDS011;28319;48.116;10.818;2024-01-07T02:40:48;4.87;;;4.07;;
41984;SDS011;28319;48.116;10.818;2024-01-07T02:45:50;6.20;;;5.20;;
41984;SDS011;28319;48.116;10.818;2024-01-07T02:50:52;4.57;;;3.80;;
41984;SDS011;28319;48.116;10.818;2024-01-07T02:55:55;5.13;;;4.40;;
41984;SDS011;28319;48.116;10.818;2024-01-07T03:00:57;5.83;;;4.60;;
41984;SDS011;28319;48.116;10.818;2024-01-07T03:05:59;5.57;;;4.33;;
41984;SDS011;28319;48.116;10.818;2024-01-07T03:11:05;5.47;;;4.17;;
41984;SDS011;28319;48.116;10.818;2024-01-07T03:16:07;5.60;;;4.53;;
41984;SDS011;28319;48.116;10.818;2024-01-07T03:21:16;5.40;;;4.47;;
41984;SDS011;28319;48.116;10.818;2024-01-07T03:26:20;6.00;;;5.03;;
41984;SDS011;28319;48.116;10.818;2024-01-07T03:31:22;4.83;;;3.90;;
41984;SDS011;28319;48.116;10.818;2024-01-07T03:36:24;6.03;;;4.40;;
41984;SDS011;28319;48.116;10.818;2024-01-07T03:41:27;4.20;;;3.80;;
41984;SDS011;28319;48.116;10.818;2024-01-07T03:46:29;6.07;;;4.60;;
41984;SDS011;28319;48.116;10.818;2024-01-07T03:51:31;4.33;;;3.93;;
41984;SDS011;28319;48.116;10.818;2024-01-07T03:56:34;5.03;;;4.43;;
41984;SDS011;28319;48.116;10.818;2024-01-07T04:01:36;6.27;;;4.67;;
41984;SDS011;28319;48.116;10.818;2024-01-07T04:06:38;4.93;;;4.30;;
41984;SDS011;28319;48.116;10.818;2024-01-07T04:11:41;5.60;;;4.90;;
41984;SDS011;28319;48.116;10.818;2024-01-07T04:16:44;5.03;;;4.20;;
41984;SDS011;28319;48.116;10.818;2024-01-07T04:21:46;5.93;;;4.53;;
41984;SDS011;28319;48.116;10.818;2024-01-07T04:26:49;5.80;;;4.60;;
41984;SDS011;28319;48.116;10.818;2024-01-07T04:31:51;5.93;;;4.90;;
41984;SDS011;28319;48.116;10.818;2024-01-07T04:36:53;6.07;;;4.50;;
41984;SDS011;28319;48.116;10.818;2024-01-07T04:41:56;5.17;;;4.30;;
41984;SDS011;28319;48.116;10.818;2024-01-07T04:46:58;6.20;;;4.77;;
41984;SDS011;28319;48.116;10.818;2024-01-07T04:52:00;5.60;;;4.40;;
41984;SDS011;28319;48.116;10.818;2024-01-07T04:57:04;4.57;;;4.17;;
41984;SDS011;28319;48.116;10.818;2024-01-07T05:02:06;4.33;;;3.70;;
41984;SDS011;28319;48.116;10.818;2024-01-07T05:07:08;4.40;;;3.97;;
41984;SDS011;28319;48.116;10.818;2024-01-07T05:12:11;4.10;;;3.73;;
41984;SDS011;28319;48.116;10.818;2024-01-07T05:17:13;4.63;;;4.10;;
41984;SDS011;28319;48.116;10.818;2024-01-07T05:22:15;4.57;;;4.17;;
41984;SDS011;28319;48.116;10.818;2024-01-07T05:27:19;4.17;;;3.77;;
41984;SDS011;28319;48.116;10.818;2024-01-07T05:32:20;4.23;;;3.83;;
41984;SDS011;28319;48.116;10.818;2024-01-07T05:37:22;4.43;;;4.00;;
41984;SDS011;28319;48.116;10.818;2024-01-07T05:42:26;4.53;;;3.90;;
41984;SDS011;28319;48.116;10.818;2024-01-07T05:47:28;4.70;;;4.30;;
41984;SDS011;28319;48.116;10.818;2024-01-07T05:52:30;4.80;;;4.30;;
41984;SDS011;28319;48.116;10.818;2024-01-07T05:57:33;5.47;;;4.53;;
41984;SDS011;28319;48.116;10.818;2024-01-07T06:02:35;5.97;;;5.23;;
41984;SDS011;28319;48.116;10.818;2024-01-07T06:07:37;6.70;;;5.47;;
41984;SDS011;28319;48.116;10.818;2024-01-07T06:12:41;7.17;;;5.87;;
41984;SDS011;28319;48.116;10.818;2024-01-07T06:17:42;6.67;;;5.97;;
41984;SDS011;28319;48.116;10.818;2024-01-07T06:22:46;9.03;;;6.83;;
41984;SDS011;28319;48.116;10.818;2024-01-07T06:27:49;10.90;;;7.07;;
41984;SDS011;28319;48.116;10.818;2024-01-07T06:32:52;8.17;;;6.40;;
41984;SDS011;28319;48.116;10.818;2024-01-07T06:37:54;8.97;;;6.90;;
41984;SDS011;28319;48.116;10.818;2024-01-07T06:42:57;10.10;;;6.93;;
41984;SDS011;28319;48.116;10.818;2024-01-07T06:47:59;11.97;;;7.73;;
41984;SDS011;28319;48.116;10.818;2024-01-07T06:53:01;11.23;;;8.30;;
41984;SDS011;28319;48.116;10.818;2024-01-07T06:58:05;11.37;;;8.50;;
41984;SDS011;28319;48.116;10.818;2024-01-07T07:03:07;11.90;;;8.10;;
41984;SDS011;28319;48.116;10.818;2024-01-07T07:08:09;10.10;;;7.57;;
41984;SDS011;28319;48.116;10.818;2024-01-07T07:13:13;11.40;;;8.20;;
41984;SDS011;28319;48.116;10.818;2024-01-07T07:18:14;10.63;;;7.53;;
41984;SDS011;28319;48.116;10.818;2024-01-07T07:23:16;10.23;;;7.23;;
41984;SDS011;28319;48.116;10.818;2024-01-07T07:28:20;11.27;;;8.30;;
41984;SDS011;28319;48.116;10.818;2024-01-07T07:33:22;10.93;;;8.00;;
41984;SDS011;28319;48.116;10.818;2024-01-07T07:38:24;10.33;;;7.10;;
41984;SDS011;28319;48.116;10.818;2024-01-07T07:43:27;8.63;;;6.73;;
41984;SDS011;28319;48.116;10.818;2024-01-07T07:48:29;8.53;;;6.27;;
41984;SDS011;28319;48.116;10.818;2024-01-07T07:53:31;8.97;;;7.17;;
41984;SDS011;28319;48.116;10.818;2024-01-07T07:58:35;8.33;;;6.20;;
41984;SDS011;28319;48.116;10.818;2024-01-07T08:03:36;10.63;;;7.20;;
41984;SDS011;28319;48.116;10.818;2024-01-07T08:08:38;8.53;;;6.70;;
41984;SDS011;28319;48.116;10.818;2024-01-07T08:13:42;8.80;;;6.47;;
41984;SDS011;28319;48.116;10.818;2024-01-07T08:18:44;7.87;;;6.37;;
41984;SDS011;28319;48.116;10.818;2024-01-07T08:23:46;8.70;;;6.00;;
41984;SDS011;28319;48.116;10.818;2024-01-07T08:28:49;6.90;;;5.60;;
41984;SDS011;28319;48.116;10.818;2024-01-07T08:33:51;7.00;;;5.30;;
41984;SDS011;28319;48.116;10.818;2024-01-07T08:38:53;8.93;;;6.07;;
41984;SDS011;28319;48.116;10.818;2024-01-07T08:43:56;6.50;;;5.47;;
41984;SDS011;28319;48.116;10.818;2024-01-07T08:48:58;8.40;;;5.83;;
41984;SDS011;28319;48.116;10.818;2024-01-07T08:54:00;9.20;;;6.40;;
41984;SDS011;28319;48.116;10.818;2024-01-07T08:59:03;7.43;;;5.90;;
41984;SDS011;28319;48.116;10.818;2024-01-07T09:04:05;8.90;;;6.33;;
41984;SDS011;28319;48.116;10.818;2024-01-07T09:09:07;11.67;;;7.60;;
41984;SDS011;28319;48.116;10.818;2024-01-07T09:14:10;9.73;;;7.10;;
41984;SDS011;28319;48.116;10.818;2024-01-07T09:19:14;10.13;;;7.00;;
41984;SDS011;28319;48.116;10.818;2024-01-07T09:24:17;11.67;;;7.87;;
41984;SDS011;28319;48.116;10.818;2024-01-07T09:29:20;9.77;;;7.57;;
41984;SDS011;28319;48.116;10.818;2024-01-07T09:34:22;8.63;;;7.00;;
41984;SDS011;28319;48.116;10.818;2024-01-07T09:39:24;13.27;;;8.43;;
41984;SDS011;28319;48.116;10.818;2024-01-07T09:44:30;17.37;;;10.63;;
41984;SDS011;28319;48.116;10.818;2024-01-07T09:49:32;8.87;;;6.80;;
41984;SDS011;28319;48.116;10.818;2024-01-07T09:54:35;32.47;;;15.80;;
41984;SDS011;28319;48.116;10.818;2024-01-07T09:59:39;10.43;;;6.67;;
41984;SDS011;28319;48.116;10.818;2024-01-07T10:04:41;10.50;;;6.57;;
41984;SDS011;28319;48.116;10.818;2024-01-07T10:09:45;8.77;;;6.60;;
41984;SDS011;28319;48.116;10.818;2024-01-07T10:14:48;9.67;;;7.00;;
41984;SDS011;28319;48.116;10.818;2024-01-07T10:19:50;21.80;;;11.23;;
41984;SDS011;28319;48.116;10.818;2024-01-07T10:24:52;8.83;;;6.63;;
41984;SDS011;28319;48.116;10.818;2024-01-07T10:29:55;9.53;;;6.63;;
41984;SDS011;28319;48.116;10.818;2024-01-07T10:35:02;10.10;;;6.40;;
41984;SDS011;28319;48.116;10.818;2024-01-07T10:40:05;9.20;;;6.40;;
41984;SDS011;28319;48.116;10.818;2024-01-07T10:45:10;8.23;;;6.20;;
41984;SDS011;28319;48.116;10.818;2024-01-07T10:50:12;7.60;;;6.07;;
41984;SDS011;28319;48.116;10.818;2024-01-07T10:55:18;9.27;;;6.57;;
41984;SDS011;28319;48.116;10.818;2024-01-07T11:00:22;8.23;;;5.60;;
41984;SDS011;28319;48.116;10.818;2024-01-07T11:05:26;8.50;;;5.50;;
41984;SDS011;28319;48.116;10.818;2024-01-07T11:10:34;9.63;;;6.03;;
41984;SDS011;28319;48.116;10.818;2024-01-07T11:15:53;8.33;;;5.10;;
41984;SDS011;28319;48.116;10.818;2024-01-07T11:20:58;9.93;;;6.30;;
41984;SDS011;28319;48.116;10.818;2024-01-07T11:26:01;8.77;;;6.33;;
41984;SDS011;28319;48.116;10.818;2024-01-07T11:31:05;8.87;;;6.10;;
41984;SDS011;28319;48.116;10.818;2024-01-07T11:36:07;8.37;;;5.50;;
41984;SDS011;28319;48.116;10.818;2024-01-07T11:41:09;9.43;;;5.20;;
41984;SDS011;28319;48.116;10.818;2024-01-07T11:46:16;9.33;;;5.63;;
41984;SDS011;28319;48.116;10.818;2024-01-07T11:51:18;7.77;;;5.10;;
41984;SDS011;28319;48.116;10.818;2024-01-07T11:56:21;7.70;;;5.13;;
41984;SDS011;28319;48.116;10.818;2024-01-07T12:01:24;7.70;;;5.43;;
41984;SDS011;28319;48.116;10.818;2024-01-07T12:06:26;6.30;;;4.83;;
41984;SDS011;28319;48.116;10.818;2024-01-07T12:11:28;6.10;;;4.53;;
41984;SDS011;28319;48.116;10.818;2024-01-07T12:16:32;6.13;;;4.47;;
41984;SDS011;28319;48.116;10.818;2024-01-07T12:21:34;4.70;;;4.13;;
41984;SDS011;28319;48.116;10.818;2024-01-07T12:26:36;5.50;;;4.63;;
41984;SDS011;28319;48.116;10.818;2024-01-07T12:31:39;4.90;;;3.87;;
41984;SDS011;28319;48.116;10.818;2024-01-07T12:36:42;4.90;;;3.77;;
41984;SDS011;28319;48.116;10.818;2024-01-07T12:41:46;6.07;;;4.40;;
41984;SDS011;28319;48.116;10.818;2024-01-07T12:46:49;6.30;;;5.00;;
41984;SDS011;28319;48.116;10.818;2024-01-07T12:51:52;5.90;;;4.57;;
41984;SDS011;28319;48.116;10.818;2024-01-07T12:56:54;5.13;;;4.13;;
41984;SDS011;28319;48.116;10.818;2024-01-07T13:01:57;5.53;;;4.53;;
41984;SDS011;28319;48.116;10.818;2024-01-07T13:06:59;8.17;;;4.97;;
41984;SDS011;28319;48.116;10.818;2024-01-07T13:12:01;10.57;;;5.80;;
41984;SDS011;28319;48.116;10.818;2024-01-07T13:17:05;5.93;;;4.57;;
41984;SDS011;28319;48.116;10.818;2024-01-07T13:22:08;6.53;;;4.50;;
41984;SDS011;28319;48.116;10.818;2024-01-07T13:27:10;6.00;;;4.87;;
41984;SDS011;28319;48.116;10.818;2024-01-07T13:32:14;6.90;;;4.47;;
41984;SDS011;28319;48.116;10.818;2024-01-07T13:37:18;6.33;;;5.10;;
41984;SDS011;28319;48.116;10.818;2024-01-07T13:42:22;6.87;;;5.10;;
41984;SDS011;28319;48.116;10.818;2024-01-07T13:47:25;8.53;;;5.63;;
41984;SDS011;28319;48.116;10.818;2024-01-07T13:52:28;8.40;;;6.13;;
41984;SDS011;28319;48.116;10.818;2024-01-07T13:57:29;10.23;;;5.40;;
41984;SDS011;28319;48.116;10.818;2024-01-07T14:02:33;8.70;;;5.93;;
41984;SDS011;28319;48.116;10.818;2024-01-07T14:07:35;7.23;;;5.47;;
41984;SDS011;28319;48.116;10.818;2024-01-07T14:12:37;7.70;;;5.50;;
41984;SDS011;28319;48.116;10.818;2024-01-07T14:17:40;8.33;;;5.47;;
41984;SDS011;28319;48.116;10.818;2024-01-07T14:22:42;9.57;;;6.27;;
41984;SDS011;28319;48.116;10.818;2024-01-07T14:27:44;9.80;;;5.67;;
41984;SDS011;28319;48.116;10.818;2024-01-07T14:32:47;9.97;;;6.50;;
41984;SDS011;28319;48.116;10.818;2024-01-07T14:37:50;10.00;;;6.83;;
41984;SDS011;28319;48.116;10.818;2024-01-07T14:42:52;9.67;;;6.70;;
41984;SDS011;28319;48.116;10.818;2024-01-07T14:47:59;9.40;;;6.40;;
41984;SDS011;28319;48.116;10.818;2024-01-07T14:53:01;9.43;;;7.27;;
41984;SDS011;28319;48.116;10.818;2024-01-07T14:58:03;9.83;;;7.20;;
41984;SDS011;28319;48.116;10.818;2024-01-07T15:03:06;9.97;;;6.50;;
41984;SDS011;28319;48.116;10.818;2024-01-07T15:08:08;8.37;;;6.17;;
41984;SDS011;28319;48.116;10.818;2024-01-07T15:13:13;8.20;;;6.23;;
41984;SDS011;28319;48.116;10.818;2024-01-07T15:18:16;6.37;;;4.93;;
41984;SDS011;28319;48.116;10.818;2024-01-07T15:23:18;6.10;;;4.87;;
41984;SDS011;28319;48.116;10.818;2024-01-07T15:28:20;5.03;;;4.47;;
41984;SDS011;28319;48.116;10.818;2024-01-07T15:33:23;5.23;;;4.17;;
41984;SDS011;28319;48.116;10.818;2024-01-07T15:38:26;5.03;;;4.47;;
41984;SDS011;28319;48.116;10.818;2024-01-07T15:43:28;5.47;;;4.57;;
41984;SDS011;28319;48.116;10.818;2024-01-07T15:48:31;6.93;;;4.47;;
41984;SDS011;28319;48.116;10.818;2024-01-07T15:53:33;6.73;;;5.10;;
41984;SDS011;28319;48.116;10.818;2024-01-07T15:58:35;5.93;;;4.53;;
41984;SDS011;28319;48.116;10.818;2024-01-07T16:03:38;8.43;;;5.10;;
41984;SDS011;28319;48.116;10.818;2024-01-07T16:08:40;7.03;;;5.07;;
41984;SDS011;28319;48.116;10.818;2024-01-07T16:13:42;6.00;;;5.40;;
41984;SDS011;28319;48.116;10.818;2024-01-07T16:18:45;5.33;;;4.63;;
41984;SDS011;28319;48.116;10.818;2024-01-07T16:23:47;6.47;;;5.27;;
41984;SDS011;28319;48.116;10.818;2024-01-07T16:28:50;7.13;;;5.40;;
41984;SDS011;28319;48.116;10.818;2024-01-07T16:33:54;8.17;;;5.93;;
41984;SDS011;28319;48.116;10.818;2024-01-07T16:38:56;8.07;;;5.77;;
41984;SDS011;28319;48.116;10.818;2024-01-07T16:43:58;7.93;;;5.67;;
41984;SDS011;28319;48.116;10.818;2024-01-07T16:49:02;7.70;;;5.00;;
41984;SDS011;28319;48.116;10.818;2024-01-07T16:54:04;6.40;;;5.33;;
41984;SDS011;28319;48.116;10.818;2024-01-07T16:59:06;9.10;;;5.10;;
41984;SDS011;28319;48.116;10.818;2024-01-07T17:04:09;7.50;;;5.73;;
41984;SDS011;28319;48.116;10.818;2024-01-07T17:09:11;7.70;;;5.27;;
41984;SDS011;28319;48.116;10.818;2024-01-07T17:14:13;7.03;;;5.27;;
41984;SDS011;28319;48.116;10.818;2024-01-07T17:19:16;6.20;;;5.07;;
41984;SDS011;28319;48.116;10.818;2024-01-07T17:24:18;7.93;;;5.20;;
41984;SDS011;28319;48.116;10.818;2024-01-07T17:29:21;6.93;;;4.80;;
41984;SDS011;28319;48.116;10.818;2024-01-07T17:34:26;7.63;;;5.10;;
41984;SDS011;28319;48.116;10.818;2024-01-07T17:39:28;6.73;;;4.80;;
41984;SDS011;28319;48.116;10.818;2024-01-07T17:44:32;7.10;;;5.17;;
41984;SDS011;28319;48.116;10.818;2024-01-07T17:49:35;7.57;;;5.30;;
41984;SDS011;28319;48.116;10.818;2024-01-07T17:54:38;8.37;;;5.87;;
41984;SDS011;28319;48.116;10.818;2024-01-07T17:59:41;7.17;;;5.07;;
41984;SDS011;28319;48.116;10.818;2024-01-07T18:04:44;7.20;;;5.57;;
41984;SDS011;28319;48.116;10.818;2024-01-07T18:09:46;6.33;;;5.43;;
41984;SDS011;28319;48.116;10.818;2024-01-07T18:14:50;6.27;;;4.63;;
41984;SDS011;28319;48.116;10.818;2024-01-07T18:19:53;7.43;;;5.07;;
41984;SDS011;28319;48.116;10.818;2024-01-07T18:24:55;9.40;;;5.33;;
41984;SDS011;28319;48.116;10.818;2024-01-07T18:29:57;7.83;;;5.63;;
41984;SDS011;28319;48.116;10.818;2024-01-07T18:35:01;8.93;;;5.40;;
41984;SDS011;28319;48.116;10.818;2024-01-07T18:40:03;8.30;;;5.23;;
41984;SDS011;28319;48.116;10.818;2024-01-07T18:45:09;11.40;;;6.37;;
41984;SDS011;28319;48.116;10.818;2024-01-07T18:50:13;8.37;;;5.83;;
41984;SDS011;28319;48.116;10.818;2024-01-07T18:55:19;7.37;;;5.40;;
41984;SDS011;28319;48.116;10.818;2024-01-07T19:00:23;6.97;;;4.80;;
41984;SDS011;28319;48.116;10.818;2024-01-07T19:05:26;7.57;;;5.20;;
41984;SDS011;28319;48.116;10.818;2024-01-07T19:10:28;9.03;;;5.50;;
41984;SDS011;28319;48.116;10.818;2024-01-07T19:15:31;8.17;;;5.53;;
41984;SDS011;28319;48.116;10.818;2024-01-07T19:20:34;8.60;;;5.50;;
41984;SDS011;28319;48.116;10.818;2024-01-07T19:25:36;6.47;;;4.80;;
41984;SDS011;28319;48.116;10.818;2024-01-07T19:30:39;6.53;;;5.07;;
41984;SDS011;28319;48.116;10.818;2024-01-07T19:35:42;7.67;;;5.97;;
41984;SDS011;28319;48.116;10.818;2024-01-07T19:40:44;8.10;;;5.60;;
41984;SDS011;28319;48.116;10.818;2024-01-07T19:45:46;7.83;;;5.83;;
41984;SDS011;28319;48.116;10.818;2024-01-07T19:50:50;10.63;;;6.63;;
41984;SDS011;28319;48.116;10.818;2024-01-07T19:55:52;9.50;;;5.87;;
41984;SDS011;28319;48.116;10.818;2024-01-07T20:00:54;8.27;;;5.73;;
41984;SDS011;28319;48.116;10.818;2024-01-07T20:05:57;8.00;;;5.90;;
41984;SDS011;28319;48.116;10.818;2024-01-07T20:10:59;7.70;;;4.60;;
41984;SDS011;28319;48.116;10.818;2024-01-07T20:16:02;7.67;;;5.20;;
41984;SDS011;28319;48.116;10.818;2024-01-07T20:21:06;7.37;;;4.97;;
41984;SDS011;28319;48.116;10.818;2024-01-07T20:26:17;5.53;;;4.77;;
41984;SDS011;28319;48.116;10.818;2024-01-07T20:31:19;7.43;;;4.43;;
41984;SDS011;28319;48.116;10.818;2024-01-07T20:36:23;9.17;;;4.93;;
41984;SDS011;28319;48.116;10.818;2024-01-07T20:41:25;8.50;;;5.43;;
41984;SDS011;28319;48.116;10.818;2024-01-07T20:46:27;9.13;;;6.17;;
41984;SDS011;28319;48.116;10.818;2024-01-07T20:51:30;7.17;;;5.23;;
41984;SDS011;28319;48.116;10.818;2024-01-07T20:56:32;8.93;;;5.60;;
41984;SDS011;28319;48.116;10.818;2024-01-07T21:01:34;9.87;;;5.43;;
41984;SDS011;28319;48.116;10.818;2024-01-07T21:06:38;10.10;;;5.30;;
41984;SDS011;28319;48.116;10.818;2024-01-07T21:11:40;11.50;;;5.30;;
41984;SDS011;28319;48.116;10.818;2024-01-07T21:16:42;8.07;;;5.07;;
41984;SDS011;28319;48.116;10.818;2024-01-07T21:21:45;7.37;;;5.33;;
41984;SDS011;28319;48.116;10.818;2024-01-07T21:26:47;8.37;;;5.30;;
41984;SDS011;28319;48.116;10.818;2024-01-07T21:31:49;8.30;;;5.40;;
41984;SDS011;28319;48.116;10.818;2024-01-07T21:36:52;10.97;;;6.10;;
41984;SDS011;28319;48.116;10.818;2024-01-07T21:41:54;8.03;;;5.33;;
41984;SDS011;28319;48.116;10.818;2024-01-07T21:46:57;7.93;;;5.33;;
41984;SDS011;28319;48.116;10.818;2024-01-07T21:52:01;7.77;;;5.10;;
41984;SDS011;28319;48.116;10.818;2024-01-07T21:57:03;8.93;;;5.27;;
41984;SDS011;28319;48.116;10.818;2024-01-07T22:02:05;8.83;;;5.53;;
41984;SDS011;28319;48.116;10.818;2024-01-07T22:07:09;7.97;;;4.70;;
41984;SDS011;28319;48.116;10.818;2024-01-07T22:12:11;10.20;;;5.53;;
41984;SDS011;28319;48.116;10.818;2024-01-07T22:17:13;9.53;;;5.40;;
41984;SDS011;28319;48.116;10.818;2024-01-07T22:22:17;8.53;;;5.50;;
41984;SDS011;28319;48.116;10.818;2024-01-07T22:27:19;8.40;;;5.63;;
41984;SDS011;28319;48.116;10.818;2024-01-07T22:32:21;11.80;;;6.43;;
41984;SDS011;28319;48.116;10.818;2024-01-07T22:37:24;8.27;;;5.60;;
41984;SDS011;28319;48.116;10.818;2024-01-07T22:42:27;7.40;;;5.70;;
41984;SDS011;28319;48.116;10.818;2024-01-07T22:47:29;10.43;;;6.43;;
41984;SDS011;28319;48.116;10.818;2024-01-07T22:52:33;6.23;;;5.20;;
41984;SDS011;28319;48.116;10.818;2024-01-07T22:57:35;8.27;;;5.30;;
41984;SDS011;28319;48.116;10.818;2024-01-07T23:02:37;7.43;;;5.17;;
41984;SDS011;28319;48.116;10.818;2024-01-07T23:07:41;8.27;;;5.70;;
41984;SDS011;28319;48.116;10.818;2024-01-07T23:12:43;7.17;;;5.00;;
41984;SDS011;28319;48.116;10.818;2024-01-07T23:17:45;6.20;;;4.90;;
41984;SDS011;28319;48.116;10.818;2024-01-07T23:22:48;6.73;;;4.90;;
41984;SDS011;28319;48.116;10.818;2024-01-07T23:27:50;7.93;;;5.37;;
41984;SDS011;28319;48.116;10.818;2024-01-07T23:32:55;6.30;;;4.77;;
41984;SDS011;28319;48.116;10.818;2024-01-07T23:38:00;8.60;;;5.23;;
41984;SDS011;28319;48.116;10.818;2024-01-07T23:43:02;5.77;;;4.80;;
41984;SDS011;28319;48.116;10.818;2024-01-07T23:48:04;5.37;;;4.70;;
41984;SDS011;28319;48.116;10.818;2024-01-07T23:53:08;4.80;;;4.07;;
41984;SDS011;28319;48.116;10.818;2024-01-07T23:58:10;5.87;;;3.97;;
